sensor_id;sensor_type;location;lat;lon;timestamp;P1;durP1;ratioP1;P2;durP2;ratioP2
23290;SDS011;11814;44.686;10.842;2022-09-27T00:02:15;16.73;;;12.45;;
23290;SDS011;11814;44.686;10.842;2022-09-27T00:04:40;19.60;;;14.32;;
23290;SDS011;11814;44.686;10.842;2022-09-27T00:07:06;13.57;;;10.48;;
23290;SDS011;11814;44.686;10.842;2022-09-27T00:09:33;17.50;;;14.32;;
23290;SDS011;11814;44.686;10.842;2022-09-27T00:11:58;18.75;;;14.32;;
23290;SDS011;11814;44.686;10.842;2022-09-27T00:14:24;16.30;;;13.60;;
23290;SDS011;11814;44.686;10.842;2022-09-27T00:16:50;23.60;;;15.13;;
23290;SDS011;11814;44.686;10.842;2022-09-27T00:19:17;18.55;;;13.98;;
23290;SDS011;11814;44.686;10.842;2022-09-27T00:21:45;14.23;;;12.13;;
23290;SDS011;11814;44.686;10.842;2022-09-27T00:24:12;15.13;;;12.15;;
23290;SDS011;11814;44.686;10.842;2022-09-27T00:26:40;14.35;;;8.73;;
23290;SDS011;11814;44.686;10.842;2022-09-27T00:29:06;11.75;;;9.30;;
23290;SDS011;11814;44.686;10.842;2022-09-27T00:31:31;8.23;;;6.82;;
23290;SDS011;11814;44.686;10.842;2022-09-27T00:33:59;11.68;;;5.38;;
23290;SDS011;11814;44.686;10.842;2022-09-27T00:36:26;7.85;;;5.20;;
23290;SDS011;11814;44.686;10.842;2022-09-27T00:38:52;7.78;;;5.18;;
23290;SDS011;11814;44.686;10.842;2022-09-27T00:41:26;9.82;;;5.40;;
23290;SDS011;11814;44.686;10.842;2022-09-27T00:44:01;8.93;;;5.50;;
23290;SDS011;11814;44.686;10.842;2022-09-27T00:47:13;8.48;;;5.20;;
23290;SDS011;11814;44.686;10.842;2022-09-27T00:50:06;11.13;;;5.93;;
23290;SDS011;11814;44.686;10.842;2022-09-27T00:55:29;7.03;;;5.35;;
23290;SDS011;11814;44.686;10.842;2022-09-27T00:57:59;8.82;;;5.38;;
23290;SDS011;11814;44.686;10.842;2022-09-27T01:00:26;11.90;;;6.53;;
23290;SDS011;11814;44.686;10.842;2022-09-27T01:02:52;13.18;;;6.93;;
23290;SDS011;11814;44.686;10.842;2022-09-27T01:05:19;9.48;;;7.28;;
23290;SDS011;11814;44.686;10.842;2022-09-27T01:07:48;10.18;;;6.40;;
23290;SDS011;11814;44.686;10.842;2022-09-27T01:10:15;11.75;;;6.65;;
23290;SDS011;11814;44.686;10.842;2022-09-27T01:18:42;13.55;;;7.68;;
23290;SDS011;11814;44.686;10.842;2022-09-27T01:34:48;13.15;;;8.65;;
23290;SDS011;11814;44.686;10.842;2022-09-27T01:42:58;15.48;;;10.02;;
23290;SDS011;11814;44.686;10.842;2022-09-27T01:48:36;18.73;;;11.20;;
23290;SDS011;11814;44.686;10.842;2022-09-27T01:51:08;17.30;;;10.95;;
23290;SDS011;11814;44.686;10.842;2022-09-27T01:53:40;18.48;;;10.60;;
23290;SDS011;11814;44.686;10.842;2022-09-27T01:56:09;15.93;;;11.60;;
23290;SDS011;11814;44.686;10.842;2022-09-27T02:01:33;13.82;;;10.60;;
23290;SDS011;11814;44.686;10.842;2022-09-27T02:04:02;19.92;;;11.48;;
23290;SDS011;11814;44.686;10.842;2022-09-27T02:06:33;21.65;;;10.35;;
23290;SDS011;11814;44.686;10.842;2022-09-27T02:09:13;15.80;;;10.80;;
23290;SDS011;11814;44.686;10.842;2022-09-27T02:11:44;14.10;;;10.80;;
23290;SDS011;11814;44.686;10.842;2022-09-27T02:20:26;18.73;;;11.60;;
23290;SDS011;11814;44.686;10.842;2022-09-27T02:22:56;17.20;;;11.20;;
23290;SDS011;11814;44.686;10.842;2022-09-27T02:25:50;22.77;;;12.85;;
23290;SDS011;11814;44.686;10.842;2022-09-27T02:31:13;17.75;;;11.88;;
23290;SDS011;11814;44.686;10.842;2022-09-27T02:33:41;19.08;;;11.10;;
23290;SDS011;11814;44.686;10.842;2022-09-27T02:36:12;17.27;;;11.88;;
23290;SDS011;11814;44.686;10.842;2022-09-27T02:38:39;21.35;;;12.25;;
23290;SDS011;11814;44.686;10.842;2022-09-27T02:41:15;23.05;;;13.05;;
23290;SDS011;11814;44.686;10.842;2022-09-27T02:43:43;24.08;;;13.95;;
23290;SDS011;11814;44.686;10.842;2022-09-27T02:46:24;20.42;;;13.05;;
23290;SDS011;11814;44.686;10.842;2022-09-27T02:57:09;16.52;;;11.73;;
23290;SDS011;11814;44.686;10.842;2022-09-27T02:59:56;22.23;;;12.52;;
23290;SDS011;11814;44.686;10.842;2022-09-27T03:05:27;21.02;;;14.30;;
23290;SDS011;11814;44.686;10.842;2022-09-27T03:07:57;24.30;;;15.48;;
23290;SDS011;11814;44.686;10.842;2022-09-27T03:10:23;26.35;;;19.35;;
23290;SDS011;11814;44.686;10.842;2022-09-27T03:12:52;26.58;;;20.95;;
23290;SDS011;11814;44.686;10.842;2022-09-27T03:15:18;30.02;;;23.67;;
23290;SDS011;11814;44.686;10.842;2022-09-27T03:17:44;29.90;;;22.10;;
23290;SDS011;11814;44.686;10.842;2022-09-27T03:20:10;20.23;;;17.35;;
23290;SDS011;11814;44.686;10.842;2022-09-27T03:22:36;30.08;;;23.77;;
23290;SDS011;11814;44.686;10.842;2022-09-27T03:25:03;30.05;;;22.80;;
23290;SDS011;11814;44.686;10.842;2022-09-27T03:27:30;33.78;;;26.25;;
23290;SDS011;11814;44.686;10.842;2022-09-27T03:29:56;35.72;;;29.63;;
23290;SDS011;11814;44.686;10.842;2022-09-27T03:32:22;42.88;;;30.35;;
23290;SDS011;11814;44.686;10.842;2022-09-27T03:34:48;38.70;;;30.80;;
23290;SDS011;11814;44.686;10.842;2022-09-27T03:37:13;47.35;;;32.78;;
23290;SDS011;11814;44.686;10.842;2022-09-27T03:39:39;36.10;;;29.73;;
23290;SDS011;11814;44.686;10.842;2022-09-27T03:42:05;37.17;;;28.52;;
23290;SDS011;11814;44.686;10.842;2022-09-27T03:44:30;31.88;;;25.67;;
23290;SDS011;11814;44.686;10.842;2022-09-27T03:46:57;34.85;;;27.05;;
23290;SDS011;11814;44.686;10.842;2022-09-27T03:49:23;38.08;;;28.83;;
23290;SDS011;11814;44.686;10.842;2022-09-27T03:51:49;34.78;;;27.88;;
23290;SDS011;11814;44.686;10.842;2022-09-27T03:54:14;36.47;;;27.67;;
23290;SDS011;11814;44.686;10.842;2022-09-27T03:56:40;32.20;;;26.17;;
23290;SDS011;11814;44.686;10.842;2022-09-27T03:59:06;35.55;;;27.92;;
23290;SDS011;11814;44.686;10.842;2022-09-27T04:01:32;33.50;;;27.48;;
23290;SDS011;11814;44.686;10.842;2022-09-27T04:03:59;39.38;;;26.67;;
23290;SDS011;11814;44.686;10.842;2022-09-27T04:06:25;40.10;;;30.90;;
23290;SDS011;11814;44.686;10.842;2022-09-27T04:08:51;32.72;;;26.50;;
23290;SDS011;11814;44.686;10.842;2022-09-27T04:11:18;42.10;;;29.92;;
23290;SDS011;11814;44.686;10.842;2022-09-27T04:13:44;34.35;;;28.42;;
23290;SDS011;11814;44.686;10.842;2022-09-27T04:16:13;43.90;;;31.35;;
23290;SDS011;11814;44.686;10.842;2022-09-27T04:18:40;41.03;;;33.60;;
23290;SDS011;11814;44.686;10.842;2022-09-27T04:21:06;49.47;;;34.17;;
23290;SDS011;11814;44.686;10.842;2022-09-27T04:23:31;44.65;;;34.30;;
23290;SDS011;11814;44.686;10.842;2022-09-27T04:25:57;46.33;;;32.72;;
23290;SDS011;11814;44.686;10.842;2022-09-27T04:28:23;49.50;;;36.13;;
23290;SDS011;11814;44.686;10.842;2022-09-27T04:30:49;47.67;;;33.13;;
23290;SDS011;11814;44.686;10.842;2022-09-27T04:33:15;42.88;;;28.55;;
23290;SDS011;11814;44.686;10.842;2022-09-27T04:35:41;37.65;;;26.35;;
23290;SDS011;11814;44.686;10.842;2022-09-27T04:38:26;47.05;;;33.55;;
23290;SDS011;11814;44.686;10.842;2022-09-27T04:40:51;46.65;;;30.90;;
23290;SDS011;11814;44.686;10.842;2022-09-27T04:43:17;40.85;;;27.65;;
23290;SDS011;11814;44.686;10.842;2022-09-27T04:45:43;37.75;;;25.55;;
23290;SDS011;11814;44.686;10.842;2022-09-27T04:48:09;39.25;;;30.63;;
23290;SDS011;11814;44.686;10.842;2022-09-27T04:50:35;39.38;;;29.25;;
23290;SDS011;11814;44.686;10.842;2022-09-27T04:53:01;39.78;;;27.33;;
23290;SDS011;11814;44.686;10.842;2022-09-27T04:55:26;41.90;;;30.58;;
23290;SDS011;11814;44.686;10.842;2022-09-27T04:57:52;43.47;;;27.75;;
23290;SDS011;11814;44.686;10.842;2022-09-27T05:00:18;43.58;;;29.33;;
23290;SDS011;11814;44.686;10.842;2022-09-27T05:02:44;39.58;;;26.80;;
23290;SDS011;11814;44.686;10.842;2022-09-27T05:05:12;39.85;;;26.27;;
23290;SDS011;11814;44.686;10.842;2022-09-27T05:07:39;39.63;;;25.02;;
23290;SDS011;11814;44.686;10.842;2022-09-27T05:10:05;40.97;;;27.90;;
23290;SDS011;11814;44.686;10.842;2022-09-27T05:12:32;43.47;;;26.33;;
23290;SDS011;11814;44.686;10.842;2022-09-27T05:14:57;41.45;;;25.25;;
23290;SDS011;11814;44.686;10.842;2022-09-27T05:17:23;42.35;;;27.52;;
23290;SDS011;11814;44.686;10.842;2022-09-27T05:19:49;36.60;;;26.83;;
23290;SDS011;11814;44.686;10.842;2022-09-27T05:22:15;41.65;;;27.73;;
23290;SDS011;11814;44.686;10.842;2022-09-27T05:24:41;38.83;;;27.48;;
23290;SDS011;11814;44.686;10.842;2022-09-27T05:27:07;40.47;;;26.88;;
23290;SDS011;11814;44.686;10.842;2022-09-27T05:29:36;48.65;;;30.40;;
23290;SDS011;11814;44.686;10.842;2022-09-27T05:32:02;48.67;;;30.55;;
23290;SDS011;11814;44.686;10.842;2022-09-27T05:34:28;44.97;;;29.25;;
23290;SDS011;11814;44.686;10.842;2022-09-27T05:36:56;45.35;;;27.83;;
23290;SDS011;11814;44.686;10.842;2022-09-27T05:39:22;44.88;;;30.23;;
23290;SDS011;11814;44.686;10.842;2022-09-27T05:41:48;39.70;;;27.38;;
23290;SDS011;11814;44.686;10.842;2022-09-27T05:44:14;40.97;;;27.85;;
23290;SDS011;11814;44.686;10.842;2022-09-27T05:46:40;47.13;;;29.25;;
23290;SDS011;11814;44.686;10.842;2022-09-27T05:49:06;46.47;;;28.90;;
23290;SDS011;11814;44.686;10.842;2022-09-27T05:51:32;38.35;;;25.48;;
23290;SDS011;11814;44.686;10.842;2022-09-27T05:53:58;35.83;;;23.60;;
23290;SDS011;11814;44.686;10.842;2022-09-27T05:56:23;41.72;;;27.40;;
23290;SDS011;11814;44.686;10.842;2022-09-27T05:58:49;32.05;;;21.45;;
23290;SDS011;11814;44.686;10.842;2022-09-27T06:01:15;37.95;;;23.15;;
23290;SDS011;11814;44.686;10.842;2022-09-27T06:03:42;35.58;;;23.85;;
23290;SDS011;11814;44.686;10.842;2022-09-27T06:06:08;41.00;;;26.30;;
23290;SDS011;11814;44.686;10.842;2022-09-27T06:08:38;43.75;;;25.08;;
23290;SDS011;11814;44.686;10.842;2022-09-27T06:11:05;41.17;;;27.17;;
23290;SDS011;11814;44.686;10.842;2022-09-27T06:13:32;47.53;;;27.45;;
23290;SDS011;11814;44.686;10.842;2022-09-27T06:16:00;37.33;;;24.88;;
23290;SDS011;11814;44.686;10.842;2022-09-27T06:18:27;35.45;;;23.00;;
23290;SDS011;11814;44.686;10.842;2022-09-27T06:20:53;38.15;;;21.88;;
23290;SDS011;11814;44.686;10.842;2022-09-27T06:23:19;33.47;;;20.58;;
23290;SDS011;11814;44.686;10.842;2022-09-27T06:25:47;32.70;;;19.70;;
23290;SDS011;11814;44.686;10.842;2022-09-27T06:28:14;30.38;;;16.75;;
23290;SDS011;11814;44.686;10.842;2022-09-27T06:30:41;29.52;;;19.05;;
23290;SDS011;11814;44.686;10.842;2022-09-27T06:33:09;29.50;;;17.98;;
23290;SDS011;11814;44.686;10.842;2022-09-27T06:35:37;32.47;;;18.80;;
23290;SDS011;11814;44.686;10.842;2022-09-27T06:38:04;33.60;;;18.40;;
23290;SDS011;11814;44.686;10.842;2022-09-27T06:40:33;27.17;;;17.05;;
23290;SDS011;11814;44.686;10.842;2022-09-27T06:43:02;34.20;;;20.17;;
23290;SDS011;11814;44.686;10.842;2022-09-27T06:45:32;30.30;;;21.05;;
23290;SDS011;11814;44.686;10.842;2022-09-27T06:48:00;24.13;;;18.02;;
23290;SDS011;11814;44.686;10.842;2022-09-27T06:50:30;32.15;;;20.77;;
23290;SDS011;11814;44.686;10.842;2022-09-27T06:52:58;30.48;;;21.15;;
23290;SDS011;11814;44.686;10.842;2022-09-27T06:55:24;36.70;;;23.52;;
23290;SDS011;11814;44.686;10.842;2022-09-27T06:57:54;31.65;;;19.90;;
23290;SDS011;11814;44.686;10.842;2022-09-27T07:00:39;30.55;;;20.55;;
23290;SDS011;11814;44.686;10.842;2022-09-27T07:03:07;34.17;;;20.58;;
23290;SDS011;11814;44.686;10.842;2022-09-27T07:05:38;30.77;;;18.33;;
23290;SDS011;11814;44.686;10.842;2022-09-27T07:08:06;29.17;;;18.13;;
23290;SDS011;11814;44.686;10.842;2022-09-27T07:10:35;24.35;;;17.40;;
23290;SDS011;11814;44.686;10.842;2022-09-27T07:13:03;24.83;;;16.48;;
23290;SDS011;11814;44.686;10.842;2022-09-27T07:15:30;26.27;;;15.60;;
23290;SDS011;11814;44.686;10.842;2022-09-27T07:18:05;29.13;;;15.48;;
23290;SDS011;11814;44.686;10.842;2022-09-27T07:20:32;26.00;;;15.90;;
23290;SDS011;11814;44.686;10.842;2022-09-27T07:23:01;34.20;;;17.70;;
23290;SDS011;11814;44.686;10.842;2022-09-27T07:25:28;26.42;;;16.83;;
23290;SDS011;11814;44.686;10.842;2022-09-27T07:27:54;29.05;;;18.02;;
23290;SDS011;11814;44.686;10.842;2022-09-27T07:30:32;23.67;;;16.40;;
23290;SDS011;11814;44.686;10.842;2022-09-27T07:32:59;27.58;;;16.33;;
23290;SDS011;11814;44.686;10.842;2022-09-27T07:35:26;27.20;;;16.00;;
23290;SDS011;11814;44.686;10.842;2022-09-27T07:37:52;28.75;;;15.93;;
23290;SDS011;11814;44.686;10.842;2022-09-27T07:40:19;25.35;;;15.68;;
23290;SDS011;11814;44.686;10.842;2022-09-27T07:42:45;25.17;;;15.73;;
23290;SDS011;11814;44.686;10.842;2022-09-27T07:45:11;23.67;;;14.75;;
23290;SDS011;11814;44.686;10.842;2022-09-27T07:47:37;25.85;;;16.17;;
23290;SDS011;11814;44.686;10.842;2022-09-27T07:50:04;24.13;;;16.10;;
23290;SDS011;11814;44.686;10.842;2022-09-27T07:52:37;23.90;;;15.05;;
23290;SDS011;11814;44.686;10.842;2022-09-27T07:55:05;22.52;;;14.10;;
23290;SDS011;11814;44.686;10.842;2022-09-27T07:57:31;21.75;;;13.82;;
23290;SDS011;11814;44.686;10.842;2022-09-27T07:59:58;21.35;;;13.85;;
23290;SDS011;11814;44.686;10.842;2022-09-27T08:02:24;22.40;;;12.00;;
23290;SDS011;11814;44.686;10.842;2022-09-27T08:04:49;19.95;;;11.45;;
23290;SDS011;11814;44.686;10.842;2022-09-27T08:07:16;23.02;;;13.48;;
23290;SDS011;11814;44.686;10.842;2022-09-27T08:09:42;28.13;;;14.73;;
23290;SDS011;11814;44.686;10.842;2022-09-27T08:12:08;21.23;;;13.30;;
23290;SDS011;11814;44.686;10.842;2022-09-27T08:14:34;18.85;;;11.40;;
23290;SDS011;11814;44.686;10.842;2022-09-27T08:17:00;18.83;;;10.85;;
23290;SDS011;11814;44.686;10.842;2022-09-27T08:19:26;19.17;;;11.32;;
23290;SDS011;11814;44.686;10.842;2022-09-27T08:21:52;17.23;;;10.45;;
23290;SDS011;11814;44.686;10.842;2022-09-27T08:24:21;21.83;;;11.93;;
23290;SDS011;11814;44.686;10.842;2022-09-27T08:26:46;20.40;;;11.38;;
23290;SDS011;11814;44.686;10.842;2022-09-27T08:29:12;19.13;;;11.85;;
23290;SDS011;11814;44.686;10.842;2022-09-27T08:31:38;19.42;;;11.07;;
23290;SDS011;11814;44.686;10.842;2022-09-27T08:34:03;16.60;;;10.60;;
23290;SDS011;11814;44.686;10.842;2022-09-27T08:36:29;13.85;;;9.82;;
23290;SDS011;11814;44.686;10.842;2022-09-27T08:38:56;20.17;;;11.35;;
23290;SDS011;11814;44.686;10.842;2022-09-27T08:49:20;16.88;;;11.20;;
23290;SDS011;11814;44.686;10.842;2022-09-27T08:51:55;16.17;;;9.23;;
23290;SDS011;11814;44.686;10.842;2022-09-27T08:54:24;16.55;;;8.82;;
23290;SDS011;11814;44.686;10.842;2022-09-27T08:56:59;14.52;;;8.70;;
23290;SDS011;11814;44.686;10.842;2022-09-27T08:59:30;13.75;;;8.15;;
23290;SDS011;11814;44.686;10.842;2022-09-27T09:02:01;15.63;;;8.82;;
23290;SDS011;11814;44.686;10.842;2022-09-27T09:04:34;19.38;;;9.07;;
23290;SDS011;11814;44.686;10.842;2022-09-27T09:07:07;14.32;;;8.70;;
23290;SDS011;11814;44.686;10.842;2022-09-27T09:12:49;12.05;;;7.05;;
23290;SDS011;11814;44.686;10.842;2022-09-27T09:36:44;6.10;;;2.78;;
23290;SDS011;11814;44.686;10.842;2022-09-27T09:39:19;7.03;;;3.30;;
23290;SDS011;11814;44.686;10.842;2022-09-27T09:44:33;7.85;;;2.85;;
23290;SDS011;11814;44.686;10.842;2022-09-27T09:50:35;8.93;;;2.83;;
23290;SDS011;11814;44.686;10.842;2022-09-27T09:53:11;7.63;;;2.90;;
23290;SDS011;11814;44.686;10.842;2022-09-27T09:59:00;5.57;;;2.40;;
23290;SDS011;11814;44.686;10.842;2022-09-27T10:01:29;5.97;;;3.00;;
23290;SDS011;11814;44.686;10.842;2022-09-27T10:04:14;3.95;;;2.15;;
23290;SDS011;11814;44.686;10.842;2022-09-27T10:06:45;6.57;;;1.70;;
23290;SDS011;11814;44.686;10.842;2022-09-27T10:09:12;6.80;;;1.85;;
23290;SDS011;11814;44.686;10.842;2022-09-27T10:11:42;5.13;;;1.90;;
23290;SDS011;11814;44.686;10.842;2022-09-27T10:14:10;8.20;;;2.80;;
23290;SDS011;11814;44.686;10.842;2022-09-27T10:16:38;8.80;;;2.30;;
23290;SDS011;11814;44.686;10.842;2022-09-27T10:19:07;5.85;;;2.63;;
23290;SDS011;11814;44.686;10.842;2022-09-27T10:21:35;5.88;;;2.60;;
23290;SDS011;11814;44.686;10.842;2022-09-27T10:24:13;9.15;;;3.17;;
23290;SDS011;11814;44.686;10.842;2022-09-27T10:26:42;6.32;;;2.78;;
23290;SDS011;11814;44.686;10.842;2022-09-27T10:31:53;8.63;;;3.22;;
23290;SDS011;11814;44.686;10.842;2022-09-27T10:37:10;7.15;;;2.50;;
23290;SDS011;11814;44.686;10.842;2022-09-27T10:39:41;8.32;;;2.67;;
23290;SDS011;11814;44.686;10.842;2022-09-27T10:42:21;6.25;;;1.98;;
23290;SDS011;11814;44.686;10.842;2022-09-27T10:44:47;10.15;;;2.00;;
23290;SDS011;11814;44.686;10.842;2022-09-27T10:47:15;9.80;;;1.80;;
23290;SDS011;11814;44.686;10.842;2022-09-27T10:49:47;6.97;;;2.38;;
23290;SDS011;11814;44.686;10.842;2022-09-27T10:52:17;5.45;;;2.50;;
23290;SDS011;11814;44.686;10.842;2022-09-27T10:54:54;8.60;;;3.17;;
23290;SDS011;11814;44.686;10.842;2022-09-27T10:57:29;11.55;;;2.60;;
23290;SDS011;11814;44.686;10.842;2022-09-27T10:59:56;8.25;;;2.75;;
23290;SDS011;11814;44.686;10.842;2022-09-27T11:02:28;7.68;;;2.47;;
23290;SDS011;11814;44.686;10.842;2022-09-27T11:05:12;8.75;;;2.35;;
23290;SDS011;11814;44.686;10.842;2022-09-27T11:07:57;8.73;;;2.10;;
23290;SDS011;11814;44.686;10.842;2022-09-27T11:13:34;8.32;;;2.20;;
23290;SDS011;11814;44.686;10.842;2022-09-27T11:18:57;11.55;;;2.47;;
23290;SDS011;11814;44.686;10.842;2022-09-27T11:25:05;7.35;;;2.50;;
23290;SDS011;11814;44.686;10.842;2022-09-27T11:28:02;4.55;;;2.03;;
23290;SDS011;11814;44.686;10.842;2022-09-27T11:30:49;9.57;;;2.42;;
23290;SDS011;11814;44.686;10.842;2022-09-27T11:33:30;6.25;;;2.20;;
23290;SDS011;11814;44.686;10.842;2022-09-27T11:41:39;8.25;;;2.47;;
23290;SDS011;11814;44.686;10.842;2022-09-27T11:49:57;10.32;;;3.42;;
23290;SDS011;11814;44.686;10.842;2022-09-27T11:56:04;8.57;;;2.35;;
23290;SDS011;11814;44.686;10.842;2022-09-27T12:01:00;7.05;;;2.42;;
23290;SDS011;11814;44.686;10.842;2022-09-27T12:06:24;8.93;;;2.50;;
23290;SDS011;11814;44.686;10.842;2022-09-27T12:09:07;7.35;;;2.58;;
23290;SDS011;11814;44.686;10.842;2022-09-27T12:11:58;6.03;;;1.90;;
23290;SDS011;11814;44.686;10.842;2022-09-27T12:14:44;10.07;;;2.60;;
23290;SDS011;11814;44.686;10.842;2022-09-27T12:17:18;5.20;;;2.28;;
23290;SDS011;11814;44.686;10.842;2022-09-27T12:19:51;6.30;;;2.17;;
23290;SDS011;11814;44.686;10.842;2022-09-27T12:22:20;7.90;;;1.95;;
23290;SDS011;11814;44.686;10.842;2022-09-27T12:24:52;10.40;;;2.30;;
23290;SDS011;11814;44.686;10.842;2022-09-27T12:27:41;7.90;;;2.05;;
23290;SDS011;11814;44.686;10.842;2022-09-27T12:30:12;8.75;;;2.33;;
23290;SDS011;11814;44.686;10.842;2022-09-27T12:35:32;7.40;;;2.67;;
23290;SDS011;11814;44.686;10.842;2022-09-27T12:38:09;4.95;;;1.88;;
23290;SDS011;11814;44.686;10.842;2022-09-27T12:40:51;7.15;;;2.30;;
23290;SDS011;11814;44.686;10.842;2022-09-27T12:43:21;6.88;;;2.13;;
23290;SDS011;11814;44.686;10.842;2022-09-27T12:48:20;5.68;;;2.45;;
23290;SDS011;11814;44.686;10.842;2022-09-27T12:51:13;4.57;;;2.08;;
23290;SDS011;11814;44.686;10.842;2022-09-27T13:08:00;5.35;;;2.08;;
23290;SDS011;11814;44.686;10.842;2022-09-27T13:13:16;6.75;;;2.53;;
23290;SDS011;11814;44.686;10.842;2022-09-27T13:15:45;6.78;;;2.70;;
23290;SDS011;11814;44.686;10.842;2022-09-27T13:18:58;6.50;;;2.22;;
23290;SDS011;11814;44.686;10.842;2022-09-27T13:21:04;7.82;;;1.90;;
23290;SDS011;11814;44.686;10.842;2022-09-27T13:26:00;8.73;;;2.00;;
23290;SDS011;11814;44.686;10.842;2022-09-27T13:30:55;7.82;;;1.85;;
23290;SDS011;11814;44.686;10.842;2022-09-27T13:33:47;6.45;;;1.70;;
23290;SDS011;11814;44.686;10.842;2022-09-27T13:46:44;9.00;;;1.60;;
23290;SDS011;11814;44.686;10.842;2022-09-27T13:49:15;6.32;;;1.50;;
23290;SDS011;11814;44.686;10.842;2022-09-27T13:52:01;4.40;;;1.30;;
23290;SDS011;11814;44.686;10.842;2022-09-27T13:54:51;6.80;;;1.40;;
23290;SDS011;11814;44.686;10.842;2022-09-27T13:57:41;5.22;;;1.40;;
23290;SDS011;11814;44.686;10.842;2022-09-27T14:00:12;6.00;;;1.20;;
23290;SDS011;11814;44.686;10.842;2022-09-27T14:02:42;8.68;;;1.40;;
23290;SDS011;11814;44.686;10.842;2022-09-27T14:05:31;8.15;;;1.60;;
23290;SDS011;11814;44.686;10.842;2022-09-27T14:10:47;5.63;;;1.20;;
23290;SDS011;11814;44.686;10.842;2022-09-27T14:13:14;6.82;;;1.30;;
23290;SDS011;11814;44.686;10.842;2022-09-27T14:15:44;5.00;;;1.65;;
23290;SDS011;11814;44.686;10.842;2022-09-27T14:18:11;4.43;;;0.95;;
23290;SDS011;11814;44.686;10.842;2022-09-27T14:20:47;7.93;;;1.15;;
23290;SDS011;11814;44.686;10.842;2022-09-27T14:23:25;6.25;;;0.90;;
23290;SDS011;11814;44.686;10.842;2022-09-27T14:25:52;6.55;;;1.38;;
23290;SDS011;11814;44.686;10.842;2022-09-27T14:28:25;3.47;;;1.10;;
23290;SDS011;11814;44.686;10.842;2022-09-27T14:33:31;6.78;;;1.20;;
23290;SDS011;11814;44.686;10.842;2022-09-27T14:35:58;5.82;;;1.20;;
23290;SDS011;11814;44.686;10.842;2022-09-27T14:38:44;7.05;;;1.40;;
23290;SDS011;11814;44.686;10.842;2022-09-27T14:41:12;5.30;;;1.17;;
23290;SDS011;11814;44.686;10.842;2022-09-27T14:43:43;4.75;;;0.95;;
23290;SDS011;11814;44.686;10.842;2022-09-27T14:46:46;6.88;;;0.90;;
23290;SDS011;11814;44.686;10.842;2022-09-27T14:49:18;2.95;;;0.75;;
23290;SDS011;11814;44.686;10.842;2022-09-27T14:51:54;3.38;;;0.93;;
23290;SDS011;11814;44.686;10.842;2022-09-27T14:54:22;6.82;;;0.90;;
23290;SDS011;11814;44.686;10.842;2022-09-27T14:56:54;4.43;;;0.80;;
23290;SDS011;11814;44.686;10.842;2022-09-27T14:59:25;5.68;;;0.80;;
23290;SDS011;11814;44.686;10.842;2022-09-27T15:01:55;5.03;;;1.00;;
23290;SDS011;11814;44.686;10.842;2022-09-27T15:04:25;3.60;;;0.43;;
23290;SDS011;11814;44.686;10.842;2022-09-27T15:06:53;6.32;;;0.80;;
23290;SDS011;11814;44.686;10.842;2022-09-27T15:09:20;6.50;;;1.33;;
23290;SDS011;11814;44.686;10.842;2022-09-27T15:11:52;3.53;;;0.75;;
23290;SDS011;11814;44.686;10.842;2022-09-27T15:14:22;2.55;;;0.85;;
23290;SDS011;11814;44.686;10.842;2022-09-27T15:16:52;5.00;;;0.70;;
23290;SDS011;11814;44.686;10.842;2022-09-27T15:21:52;6.22;;;0.90;;
23290;SDS011;11814;44.686;10.842;2022-09-27T15:24:34;6.53;;;0.98;;
23290;SDS011;11814;44.686;10.842;2022-09-27T15:27:00;1.55;;;0.65;;
23290;SDS011;11814;44.686;10.842;2022-09-27T15:29:26;4.28;;;0.90;;
23290;SDS011;11814;44.686;10.842;2022-09-27T15:31:59;7.18;;;1.05;;
23290;SDS011;11814;44.686;10.842;2022-09-27T15:34:28;4.45;;;0.75;;
23290;SDS011;11814;44.686;10.842;2022-09-27T15:36:57;5.20;;;1.10;;
23290;SDS011;11814;44.686;10.842;2022-09-27T15:39:34;6.00;;;1.00;;
23290;SDS011;11814;44.686;10.842;2022-09-27T15:42:08;3.75;;;0.70;;
23290;SDS011;11814;44.686;10.842;2022-09-27T15:44:38;3.22;;;0.90;;
23290;SDS011;11814;44.686;10.842;2022-09-27T15:52:51;4.10;;;0.90;;
23290;SDS011;11814;44.686;10.842;2022-09-27T15:55:20;3.67;;;0.60;;
23290;SDS011;11814;44.686;10.842;2022-09-27T15:57:55;3.92;;;0.57;;
23290;SDS011;11814;44.686;10.842;2022-09-27T16:00:23;3.85;;;0.68;;
23290;SDS011;11814;44.686;10.842;2022-09-27T16:02:50;4.65;;;0.88;;
23290;SDS011;11814;44.686;10.842;2022-09-27T16:05:16;4.15;;;0.70;;
23290;SDS011;11814;44.686;10.842;2022-09-27T16:07:42;4.20;;;0.93;;
23290;SDS011;11814;44.686;10.842;2022-09-27T16:10:16;3.13;;;0.57;;
23290;SDS011;11814;44.686;10.842;2022-09-27T16:12:47;3.75;;;0.68;;
23290;SDS011;11814;44.686;10.842;2022-09-27T16:15:14;3.38;;;0.80;;
23290;SDS011;11814;44.686;10.842;2022-09-27T16:17:41;5.63;;;0.80;;
23290;SDS011;11814;44.686;10.842;2022-09-27T16:20:18;4.60;;;0.80;;
23290;SDS011;11814;44.686;10.842;2022-09-27T16:22:49;6.43;;;0.88;;
23290;SDS011;11814;44.686;10.842;2022-09-27T16:25:16;3.30;;;0.80;;
23290;SDS011;11814;44.686;10.842;2022-09-27T16:27:42;2.67;;;0.52;;
23290;SDS011;11814;44.686;10.842;2022-09-27T16:30:08;5.20;;;1.10;;
23290;SDS011;11814;44.686;10.842;2022-09-27T16:32:41;4.05;;;1.00;;
23290;SDS011;11814;44.686;10.842;2022-09-27T16:35:08;7.55;;;0.98;;
23290;SDS011;11814;44.686;10.842;2022-09-27T16:37:35;4.60;;;0.88;;
23290;SDS011;11814;44.686;10.842;2022-09-27T16:40:02;3.47;;;0.80;;
23290;SDS011;11814;44.686;10.842;2022-09-27T16:42:29;4.38;;;1.02;;
23290;SDS011;11814;44.686;10.842;2022-09-27T16:44:55;3.72;;;1.00;;
23290;SDS011;11814;44.686;10.842;2022-09-27T16:47:21;2.88;;;0.82;;
23290;SDS011;11814;44.686;10.842;2022-09-27T16:49:47;3.60;;;0.98;;
23290;SDS011;11814;44.686;10.842;2022-09-27T16:52:31;2.15;;;0.70;;
23290;SDS011;11814;44.686;10.842;2022-09-27T16:54:57;6.78;;;0.90;;
23290;SDS011;11814;44.686;10.842;2022-09-27T16:57:24;5.75;;;1.17;;
23290;SDS011;11814;44.686;10.842;2022-09-27T16:59:52;5.38;;;1.15;;
23290;SDS011;11814;44.686;10.842;2022-09-27T17:02:20;5.40;;;1.33;;
23290;SDS011;11814;44.686;10.842;2022-09-27T17:04:46;8.00;;;1.30;;
23290;SDS011;11814;44.686;10.842;2022-09-27T17:07:12;3.00;;;1.00;;
23290;SDS011;11814;44.686;10.842;2022-09-27T17:09:37;8.35;;;1.70;;
23290;SDS011;11814;44.686;10.842;2022-09-27T17:12:04;7.82;;;1.27;;
23290;SDS011;11814;44.686;10.842;2022-09-27T17:14:30;4.82;;;1.42;;
23290;SDS011;11814;44.686;10.842;2022-09-27T17:16:56;6.40;;;1.40;;
23290;SDS011;11814;44.686;10.842;2022-09-27T17:19:22;9.20;;;1.63;;
23290;SDS011;11814;44.686;10.842;2022-09-27T17:21:48;8.68;;;1.30;;
23290;SDS011;11814;44.686;10.842;2022-09-27T17:24:14;5.07;;;1.20;;
23290;SDS011;11814;44.686;10.842;2022-09-27T17:26:41;6.18;;;1.33;;
23290;SDS011;11814;44.686;10.842;2022-09-27T17:29:08;4.55;;;1.00;;
23290;SDS011;11814;44.686;10.842;2022-09-27T17:31:36;4.43;;;1.15;;
23290;SDS011;11814;44.686;10.842;2022-09-27T17:34:04;4.53;;;1.50;;
23290;SDS011;11814;44.686;10.842;2022-09-27T17:36:31;9.75;;;1.20;;
23290;SDS011;11814;44.686;10.842;2022-09-27T17:38:58;5.35;;;1.10;;
23290;SDS011;11814;44.686;10.842;2022-09-27T17:41:25;4.53;;;0.93;;